Time;durP1;ratioP1;P1;durP2;ratioP2;P2;SDS_P1;SDS_P2;PMS_P1;PMS_P2;Temp;Humidity;BMP_temperature;BMP_pressure;BME280_temperature;BME280_humidity;BME280_pressure;Samples;Min_cycle;Max_cycle;Signal;HPM_P1;HPM_P2
2021/07/18 00:01:39;;;;;;;21.73;9.70;;;16.50;99.90;;;;;;5130586;28;20046;-67
2021/07/18 00:04:05;;;;;;;18.70;9.48;;;16.50;99.90;;;;;;5142997;28;20431;-67
2021/07/18 00:06:31;;;;;;;23.52;10.60;;;16.50;99.90;;;;;;5133743;28;20107;-67
2021/07/18 00:08:57;;;;;;;23.10;10.45;;;16.40;99.90;;;;;;5125290;28;20048;-67
2021/07/18 00:11:23;;;;;;;25.35;11.02;;;16.40;99.90;;;;;;5131910;28;20094;-67
2021/07/18 00:13:48;;;;;;;24.33;10.13;;;16.40;99.90;;;;;;5131495;28;20075;-67
2021/07/18 00:16:14;;;;;;;25.65;12.13;;;16.40;99.90;;;;;;5129421;28;20422;-67
2021/07/18 00:18:40;;;;;;;32.33;12.25;;;16.40;99.90;;;;;;5125053;28;20047;-67
2021/07/18 00:21:06;;;;;;;25.08;11.63;;;16.30;99.90;;;;;;5131088;28;20059;-67
2021/07/18 00:23:32;;;;;;;23.75;10.55;;;16.40;99.90;;;;;;5124370;28;20066;-67
2021/07/18 00:25:58;;;;;;;24.20;10.10;;;16.30;99.90;;;;;;5138752;28;21808;-67
2021/07/18 00:28:24;;;;;;;23.98;10.65;;;16.30;99.90;;;;;;5124357;28;20064;-67
2021/07/18 00:30:50;;;;;;;28.20;11.30;;;16.30;99.90;;;;;;5126314;27;20126;-67
2021/07/18 00:33:16;;;;;;;22.48;10.45;;;16.20;99.90;;;;;;5137344;27;20521;-67
2021/07/18 00:35:42;;;;;;;24.08;9.98;;;16.20;99.90;;;;;;5142686;27;20051;-67
2021/07/18 00:38:08;;;;;;;23.58;10.73;;;16.20;99.90;;;;;;5129644;27;20078;-67
2021/07/18 00:40:34;;;;;;;20.10;10.80;;;16.20;99.90;;;;;;5133736;27;20479;-67
2021/07/18 00:43:00;;;;;;;25.52;12.35;;;16.20;99.90;;;;;;5134604;27;20059;-67
2021/07/18 00:45:25;;;;;;;22.48;11.88;;;16.20;99.90;;;;;;5126821;28;20050;-67
2021/07/18 00:47:53;;;;;;;28.30;11.90;;;16.20;99.90;;;;;;5127262;27;20043;-67
2021/07/18 00:50:19;;;;;;;18.98;10.25;;;16.10;99.90;;;;;;5128080;27;20051;-67
2021/07/18 00:52:45;;;;;;;22.55;10.82;;;16.10;99.90;;;;;;5127407;27;20036;-67
2021/07/18 00:55:13;;;;;;;26.42;10.82;;;16.10;99.90;;;;;;5126782;27;20687;-67
2021/07/18 00:57:43;;;;;;;22.98;11.32;;;16.10;99.90;;;;;;5138699;27;20054;-67
2021/07/18 01:00:11;;;;;;;23.58;11.27;;;16.10;99.90;;;;;;5131474;27;20040;-67
2021/07/18 01:02:38;;;;;;;26.10;10.77;;;16.10;99.90;;;;;;5138413;27;20043;-67
2021/07/18 01:05:06;;;;;;;21.75;11.30;;;16.00;99.90;;;;;;5127047;28;20062;-66
2021/07/18 01:07:33;;;;;;;24.33;11.43;;;16.00;99.90;;;;;;5129538;27;20475;-67
2021/07/18 01:10:03;;;;;;;22.17;12.75;;;16.00;99.90;;;;;;5141434;27;20114;-66
2021/07/18 01:12:29;;;;;;;29.35;12.80;;;15.90;99.90;;;;;;5135700;27;20044;-67
2021/07/18 01:14:55;;;;;;;26.52;12.00;;;15.80;99.90;;;;;;5127101;27;20052;-67
2021/07/18 01:17:21;;;;;;;27.48;11.65;;;15.80;99.90;;;;;;5126689;27;20467;-67
2021/07/18 01:19:47;;;;;;;26.75;12.27;;;15.80;99.90;;;;;;5137195;27;20067;-67
2021/07/18 01:22:13;;;;;;;27.13;12.73;;;15.80;99.90;;;;;;5145016;27;20053;-67
2021/07/18 01:24:39;;;;;;;29.05;13.13;;;15.80;99.90;;;;;;5137926;27;20078;-66
2021/07/18 01:27:06;;;;;;;26.73;12.85;;;15.70;99.90;;;;;;5125448;28;20039;-67
2021/07/18 01:29:34;;;;;;;26.73;12.25;;;15.80;99.90;;;;;;5129687;27;20051;-67
2021/07/18 01:32:02;;;;;;;28.10;12.93;;;15.70;99.90;;;;;;5132376;27;20059;-67
2021/07/18 01:34:28;;;;;;;26.67;13.32;;;15.70;99.90;;;;;;5140548;27;20511;-67
2021/07/18 01:36:55;;;;;;;29.08;13.63;;;15.70;99.90;;;;;;5127597;27;20035;-67
2021/07/18 01:39:22;;;;;;;36.30;14.30;;;15.70;99.90;;;;;;5147085;27;20050;-67
2021/07/18 01:41:50;;;;;;;27.25;13.32;;;15.70;99.90;;;;;;5142879;27;20058;-67
2021/07/18 01:44:15;;;;;;;25.80;12.40;;;15.70;99.90;;;;;;5146678;27;20043;-67
2021/07/18 01:46:41;;;;;;;23.35;12.13;;;15.70;99.90;;;;;;5131431;27;20142;-67
2021/07/18 01:49:08;;;;;;;25.10;12.02;;;15.60;99.90;;;;;;5139829;27;20043;-67
2021/07/18 01:51:35;;;;;;;28.73;13.57;;;15.60;99.90;;;;;;5146407;27;20043;-67
2021/07/18 01:54:03;;;;;;;26.65;13.93;;;15.60;99.90;;;;;;5139045;27;20600;-67
2021/07/18 01:56:29;;;;;;;32.00;13.35;;;15.70;99.90;;;;;;5130724;27;20055;-67
2021/07/18 01:58:55;;;;;;;29.65;14.13;;;15.60;99.90;;;;;;5133665;27;20047;-67
2021/07/18 02:01:27;;;;;;;35.10;14.75;;;15.60;99.90;;;;;;5144345;27;20046;-67
2021/07/18 02:03:53;;;;;;;38.67;14.90;;;15.70;99.90;;;;;;5140189;27;20443;-67
2021/07/18 02:06:21;;;;;;;37.38;12.98;;;15.60;99.90;;;;;;5145858;27;20071;-67
2021/07/18 02:08:54;;;;;;;29.38;13.80;;;15.60;99.90;;;;;;5132868;27;20032;-67
2021/07/18 02:11:21;;;;;;;31.13;13.90;;;15.60;99.90;;;;;;5137209;27;20049;-67
2021/07/18 02:13:48;;;;;;;35.57;14.47;;;15.60;99.90;;;;;;5133565;27;20048;-67
2021/07/18 02:16:15;;;;;;;27.27;12.25;;;15.60;99.90;;;;;;5136724;27;20047;-67
2021/07/18 02:18:42;;;;;;;36.55;15.90;;;15.60;99.90;;;;;;5132138;27;20116;-67
2021/07/18 02:21:08;;;;;;;32.58;13.70;;;15.50;99.90;;;;;;5143949;27;20043;-67
2021/07/18 02:23:34;;;;;;;29.67;14.43;;;15.50;99.90;;;;;;5137362;27;20047;-67
2021/07/18 02:26:01;;;;;;;33.65;13.65;;;15.50;99.90;;;;;;5136977;27;20089;-67
2021/07/18 02:28:26;;;;;;;32.80;14.30;;;15.40;99.90;;;;;;5137111;27;20046;-67
2021/07/18 02:30:52;;;;;;;32.45;15.88;;;15.50;99.90;;;;;;5139303;27;20039;-67
2021/07/18 02:33:18;;;;;;;37.65;16.60;;;15.40;99.90;;;;;;5129657;27;20039;-66
2021/07/18 02:35:44;;;;;;;36.80;15.18;;;15.50;99.90;;;;;;5137905;27;20070;-67
2021/07/18 02:38:10;;;;;;;34.13;15.73;;;15.40;99.90;;;;;;5141875;27;20050;-67
2021/07/18 02:40:36;;;;;;;32.75;16.30;;;15.40;99.90;;;;;;5143046;27;20043;-66
2021/07/18 02:43:02;;;;;;;35.92;14.98;;;15.40;99.90;;;;;;5142764;27;20043;-66
2021/07/18 02:45:30;;;;;;;31.75;15.15;;;15.40;99.90;;;;;;5135644;27;20095;-68
2021/07/18 02:47:56;;;;;;;30.70;15.80;;;15.40;99.90;;;;;;5139580;27;20058;-67
2021/07/18 02:50:25;;;;;;;45.42;16.80;;;15.40;99.90;;;;;;5134517;27;20056;-66
2021/07/18 02:52:51;;;;;;;42.72;18.45;;;15.40;99.90;;;;;;5140511;27;20100;-66
2021/07/18 02:55:18;;;;;;;41.05;17.13;;;15.50;99.90;;;;;;5133879;27;20534;-67
2021/07/18 02:57:44;;;;;;;31.48;15.27;;;15.50;99.90;;;;;;5140611;27;20043;-67
2021/07/18 03:00:18;;;;;;;29.48;15.70;;;15.50;99.90;;;;;;5133307;27;20042;-66
2021/07/18 03:02:45;;;;;;;33.95;15.20;;;15.50;99.90;;;;;;5140448;27;20039;-67
2021/07/18 03:05:12;;;;;;;30.83;14.88;;;15.50;99.90;;;;;;5132683;27;20068;-67
2021/07/18 03:07:39;;;;;;;35.72;14.93;;;15.50;99.90;;;;;;5140515;27;20047;-67
2021/07/18 03:10:07;;;;;;;31.83;14.85;;;15.50;99.90;;;;;;5144673;27;20073;-67
2021/07/18 03:12:33;;;;;;;34.40;14.88;;;15.50;99.90;;;;;;5130033;27;20044;-67
2021/07/18 03:15:00;;;;;;;32.47;14.85;;;15.40;99.90;;;;;;5126058;28;20067;-66
2021/07/18 03:17:26;;;;;;;40.40;16.67;;;15.30;99.90;;;;;;5131825;27;20061;-67
2021/07/18 03:19:52;;;;;;;36.13;16.77;;;15.40;99.90;;;;;;5131750;27;20096;-67
2021/07/18 03:22:19;;;;;;;35.90;15.52;;;15.40;99.90;;;;;;5132832;27;20040;-67
2021/07/18 03:24:45;;;;;;;30.70;14.35;;;15.40;99.90;;;;;;5124737;27;20051;-67
2021/07/18 03:27:11;;;;;;;39.40;15.85;;;15.30;99.90;;;;;;5141829;27;20072;-67
2021/07/18 03:29:37;;;;;;;38.33;17.08;;;15.30;99.90;;;;;;5135525;27;20047;-67
2021/07/18 03:32:03;;;;;;;29.48;14.13;;;15.40;99.90;;;;;;5126744;27;20075;-67
2021/07/18 03:34:29;;;;;;;36.17;16.63;;;15.30;99.90;;;;;;5144367;27;20039;-68
2021/07/18 03:36:55;;;;;;;32.25;15.20;;;15.30;99.90;;;;;;5137916;27;20062;-67
2021/07/18 03:39:20;;;;;;;34.53;14.18;;;15.30;99.90;;;;;;5130196;27;20050;-67
2021/07/18 03:41:46;;;;;;;30.42;14.02;;;15.40;99.90;;;;;;5139333;28;20054;-67
2021/07/18 03:44:12;;;;;;;41.75;15.48;;;15.40;99.90;;;;;;5139048;28;20174;-67
2021/07/18 03:46:38;;;;;;;27.20;14.45;;;15.30;99.90;;;;;;5140881;28;20271;-67
2021/07/18 03:49:04;;;;;;;33.85;15.75;;;15.40;99.90;;;;;;5124634;28;20054;-67
2021/07/18 03:51:30;;;;;;;37.88;15.25;;;15.40;99.90;;;;;;5141941;28;20100;-67
2021/07/18 03:53:56;;;;;;;29.58;13.82;;;15.40;99.90;;;;;;5134497;28;20043;-67
2021/07/18 03:56:22;;;;;;;23.50;14.00;;;15.50;99.90;;;;;;5144752;28;20320;-66
2021/07/18 03:58:50;;;;;;;28.50;14.50;;;15.50;99.90;;;;;;5124469;28;20323;-68
2021/07/18 04:01:16;;;;;;;29.33;14.55;;;15.50;99.90;;;;;;5138816;28;20046;-67
2021/07/18 04:03:46;;;;;;;25.05;14.07;;;15.50;99.90;;;;;;5126430;28;20048;-66
2021/07/18 04:06:12;;;;;;;22.33;13.23;;;15.50;99.90;;;;;;5127555;28;20047;-66
2021/07/18 04:08:38;;;;;;;20.88;13.38;;;15.50;99.90;;;;;;5136538;27;20595;-68
2021/07/18 04:11:04;;;;;;;26.52;14.18;;;15.50;99.90;;;;;;5144071;27;20297;-66
2021/07/18 04:13:30;;;;;;;22.40;12.52;;;15.50;99.90;;;;;;5146153;27;20087;-66
2021/07/18 04:15:55;;;;;;;24.42;12.90;;;15.50;99.90;;;;;;5142974;27;20039;-66
2021/07/18 04:18:21;;;;;;;20.48;13.05;;;15.60;99.90;;;;;;5146030;27;20107;-66
2021/07/18 04:20:47;;;;;;;28.67;13.05;;;15.60;99.90;;;;;;5136020;27;20058;-68
2021/07/18 04:23:14;;;;;;;23.45;13.23;;;15.60;99.90;;;;;;5129931;27;20067;-66
2021/07/18 04:25:40;;;;;;;25.60;12.93;;;15.60;99.90;;;;;;5136729;27;20044;-66
2021/07/18 04:28:06;;;;;;;20.33;11.27;;;15.70;99.90;;;;;;5129536;27;20058;-66
2021/07/18 04:30:32;;;;;;;22.05;12.07;;;15.70;99.90;;;;;;5139830;27;20573;-66
2021/07/18 04:32:57;;;;;;;19.55;11.70;;;15.70;99.90;;;;;;5140114;27;20116;-67
2021/07/18 04:35:23;;;;;;;14.98;10.43;;;15.80;99.90;;;;;;5137673;27;20063;-67
2021/07/18 04:37:49;;;;;;;20.88;11.85;;;15.80;99.90;;;;;;5141732;27;20069;-66
2021/07/18 04:40:15;;;;;;;16.83;11.27;;;15.80;99.90;;;;;;5136033;27;20086;-66
2021/07/18 04:42:41;;;;;;;18.63;11.10;;;15.90;99.90;;;;;;5128655;27;20043;-66
2021/07/18 04:45:08;;;;;;;18.13;10.43;;;15.90;99.90;;;;;;5131944;27;20055;-66
2021/07/18 04:47:49;;;;;;;17.60;10.20;;;16.00;99.90;;;;;;5139039;27;20051;-66
2021/07/18 04:50:16;;;;;;;17.15;9.57;;;16.00;99.90;;;;;;5131583;27;20032;-66
2021/07/18 04:52:42;;;;;;;16.95;10.35;;;16.10;99.90;;;;;;5130000;27;20047;-66
2021/07/18 04:55:09;;;;;;;20.73;11.13;;;16.10;99.90;;;;;;5131392;27;20047;-66
2021/07/18 04:57:36;;;;;;;;;;;16.20;99.90;;;;;;5138343;27;20046;-66
2021/07/18 05:00:08;;;;;;;15.40;9.05;;;16.20;99.90;;;;;;5145799;27;19926;-66
2021/07/18 05:02:35;;;;;;;18.17;10.60;;;16.20;99.90;;;;;;5127076;27;20051;-66
2021/07/18 05:05:00;;;;;;;20.45;10.20;;;16.30;99.90;;;;;;5126569;27;20088;-66
2021/07/18 05:07:26;;;;;;;17.20;9.73;;;16.30;99.90;;;;;;5147340;27;20488;-66
2021/07/18 05:09:52;;;;;;;18.20;9.90;;;16.40;99.90;;;;;;5143309;27;20161;-66
2021/07/18 05:12:18;;;;;;;15.38;9.82;;;16.40;99.90;;;;;;5128641;27;20039;-66
2021/07/18 05:14:45;;;;;;;22.20;8.82;;;16.40;99.90;;;;;;5141118;27;20046;-66
2021/07/18 05:17:14;;;;;;;14.32;9.63;;;16.50;99.90;;;;;;5132653;27;20042;-66
2021/07/18 05:19:41;;;;;;;15.68;9.25;;;16.50;99.90;;;;;;5139205;27;20532;-66
2021/07/18 05:22:07;;;;;;;16.60;9.85;;;16.60;99.90;;;;;;5135672;27;20050;-66
2021/07/18 05:24:33;;;;;;;16.10;10.05;;;16.60;99.90;;;;;;5132527;27;20047;-66
2021/07/18 05:27:00;;;;;;;16.50;8.60;;;16.70;99.90;;;;;;5128560;27;20043;-67
2021/07/18 05:29:26;;;;;;;15.95;8.93;;;16.70;99.90;;;;;;5142082;27;20062;-67
2021/07/18 05:31:51;;;;;;;17.70;9.93;;;16.80;99.90;;;;;;5124253;27;20039;-67
2021/07/18 05:34:17;;;;;;;18.08;9.65;;;16.90;99.90;;;;;;5135087;27;20039;-68
2021/07/18 05:36:43;;;;;;;19.13;9.15;;;16.90;99.90;;;;;;5128692;27;20044;-66
2021/07/18 05:39:09;;;;;;;17.15;8.65;;;17.00;99.90;;;;;;5139847;27;20039;-67
2021/07/18 05:41:35;;;;;;;13.07;8.43;;;17.10;99.90;;;;;;5137613;27;20048;-66
2021/07/18 05:44:00;;;;;;;12.68;8.68;;;17.10;99.90;;;;;;5134268;27;20138;-66
2021/07/18 05:46:26;;;;;;;14.00;8.75;;;17.20;99.90;;;;;;5126965;27;20503;-68
2021/07/18 05:48:52;;;;;;;10.23;8.18;;;17.30;99.90;;;;;;5126924;27;20063;-69
2021/07/18 05:51:17;;;;;;;14.80;8.65;;;17.40;99.90;;;;;;5141197;27;20479;-67
2021/07/18 05:53:43;;;;;;;11.13;7.82;;;17.50;99.90;;;;;;5143138;27;20039;-67
2021/07/18 05:56:09;;;;;;;13.63;8.40;;;17.50;99.90;;;;;;5138071;27;20047;-67
2021/07/18 05:58:35;;;;;;;16.65;8.85;;;17.60;99.90;;;;;;5130798;27;20130;-68
2021/07/18 06:01:02;;;;;;;15.60;8.00;;;17.70;99.90;;;;;;5137927;27;20066;-67
2021/07/18 06:03:27;;;;;;;10.93;8.65;;;17.90;99.90;;;;;;5144785;27;20043;-68
2021/07/18 06:05:53;;;;;;;11.52;8.25;;;18.00;99.90;;;;;;5137366;27;20054;-67
2021/07/18 06:08:19;;;;;;;10.13;7.40;;;18.10;99.90;;;;;;5142921;27;20407;-67
2021/07/18 06:10:45;;;;;;;12.65;7.93;;;18.20;99.90;;;;;;5146272;27;20470;-68
2021/07/18 06:13:10;;;;;;;11.18;7.43;;;18.30;99.90;;;;;;5129038;27;20078;-68
2021/07/18 06:15:36;;;;;;;13.57;7.80;;;18.40;99.90;;;;;;5129224;27;20074;-67
2021/07/18 06:18:02;;;;;;;10.65;7.70;;;18.50;99.90;;;;;;5141374;27;20062;-66
2021/07/18 06:20:28;;;;;;;14.88;7.30;;;18.60;99.90;;;;;;5141576;27;20043;-67
2021/07/18 06:22:54;;;;;;;11.13;7.45;;;18.80;99.90;;;;;;5131761;27;20088;-66
2021/07/18 06:25:19;;;;;;;15.55;6.47;;;18.90;99.90;;;;;;5132663;27;20162;-67
2021/07/18 06:27:46;;;;;;;10.10;6.75;;;19.00;99.90;;;;;;5142197;27;20043;-66
2021/07/18 06:30:13;;;;;;;12.43;7.45;;;19.10;99.90;;;;;;5134901;27;20047;-65
2021/07/18 06:32:40;;;;;;;10.93;5.93;;;19.20;99.90;;;;;;5142535;27;20407;-65
2021/07/18 06:35:08;;;;;;;12.73;7.75;;;19.30;99.90;;;;;;5135323;27;20047;-66
2021/07/18 06:37:34;;;;;;;8.18;5.97;;;19.40;99.90;;;;;;5133630;27;20051;-65
2021/07/18 06:40:04;;;;;;;11.35;6.30;;;19.60;99.90;;;;;;5137529;27;20046;-64
2021/07/18 06:42:30;;;;;;;8.68;6.95;;;19.60;99.90;;;;;;5139811;27;20039;-65
2021/07/18 06:44:59;;;;;;;11.63;7.35;;;19.80;99.90;;;;;;5141829;27;20058;-65
2021/07/18 06:47:27;;;;;;;10.43;6.15;;;19.90;99.90;;;;;;5137656;27;20099;-65
2021/07/18 06:49:55;;;;;;;14.02;6.40;;;20.00;99.90;;;;;;5143918;27;20505;-66
2021/07/18 06:52:21;;;;;;;;;;;20.10;99.90;;;;;;5140538;27;20039;-65
2021/07/18 06:54:47;;;;;;;10.50;5.90;;;20.20;99.90;;;;;;5141710;27;19926;-66
2021/07/18 06:57:13;;;;;;;11.75;5.95;;;20.40;99.90;;;;;;5135896;27;20054;-66
2021/07/18 06:59:39;;;;;;;7.18;5.88;;;20.40;99.90;;;;;;5139543;27;20537;-66
2021/07/18 07:02:06;;;;;;;13.30;6.32;;;20.40;99.90;;;;;;5143112;27;20394;-65
2021/07/18 07:04:32;;;;;;;11.45;5.82;;;20.40;99.90;;;;;;5125949;27;20086;-65
2021/07/18 07:06:58;;;;;;;9.95;6.65;;;20.50;99.90;;;;;;5139224;27;20043;-65
2021/07/18 07:09:24;;;;;;;10.60;6.60;;;20.50;99.90;;;;;;5136786;27;20042;-64
2021/07/18 07:11:50;;;;;;;17.30;8.02;;;20.70;99.90;;;;;;5142580;27;20107;-65
2021/07/18 07:14:15;;;;;;;11.35;5.30;;;20.70;99.90;;;;;;5136438;27;20076;-65
2021/07/18 07:16:41;;;;;;;10.50;5.60;;;20.80;99.90;;;;;;5140206;27;20047;-65
2021/07/18 07:19:07;;;;;;;12.02;5.20;;;21.00;99.90;;;;;;5132824;27;20378;-65
2021/07/18 07:21:33;;;;;;;8.85;5.03;;;21.10;99.90;;;;;;5142677;27;20043;-65
2021/07/18 07:24:13;;;;;;;7.15;4.82;;;21.20;99.90;;;;;;5141833;27;20103;-65
2021/07/18 07:26:39;;;;;;;10.45;5.50;;;21.30;99.90;;;;;;5128377;27;20070;-65
2021/07/18 07:29:06;;;;;;;10.80;4.68;;;21.40;99.90;;;;;;5134872;27;20402;-65
2021/07/18 07:31:31;;;;;;;11.43;4.88;;;21.30;99.90;;;;;;5141555;27;20043;-64
2021/07/18 07:33:57;;;;;;;8.30;4.70;;;21.30;99.90;;;;;;5134650;27;20062;-65
2021/07/18 07:36:24;;;;;;;8.52;4.03;;;21.20;99.90;;;;;;5141640;27;20066;-65
2021/07/18 07:38:51;;;;;;;5.65;3.72;;;21.30;99.90;;;;;;5131861;27;20039;-66
2021/07/18 07:41:17;;;;;;;7.68;3.95;;;21.50;99.90;;;;;;5124655;28;20044;-66
2021/07/18 07:43:43;;;;;;;7.70;4.30;;;21.60;99.90;;;;;;5124518;28;20082;-65
2021/07/18 07:46:08;;;;;;;7.80;4.45;;;21.70;99.90;;;;;;5129934;28;20097;-64
2021/07/18 07:48:34;;;;;;;5.72;4.43;;;21.70;99.90;;;;;;5132906;28;20146;-64
2021/07/18 07:51:02;;;;;;;8.05;3.92;;;21.70;99.90;;;;;;5137454;28;20514;-65
2021/07/18 07:53:27;;;;;;;10.20;4.30;;;21.70;99.90;;;;;;5144293;28;20084;-65
2021/07/18 07:55:53;;;;;;;9.25;3.35;;;21.80;99.90;;;;;;5132155;28;20044;-64
2021/07/18 07:58:19;;;;;;;10.90;4.03;;;21.70;99.90;;;;;;5128597;28;20406;-65
2021/07/18 08:00:46;;;;;;;4.30;3.37;;;21.80;99.90;;;;;;5132933;28;20049;-65
2021/07/18 08:03:11;;;;;;;8.40;3.45;;;21.80;99.90;;;;;;5140601;28;20066;-65
2021/07/18 08:05:38;;;;;;;7.32;3.80;;;21.90;99.90;;;;;;5142262;28;20035;-65
2021/07/18 08:08:07;;;;;;;5.13;2.47;;;22.00;99.90;;;;;;5138119;28;20057;-65
2021/07/18 08:10:33;;;;;;;6.88;2.60;;;22.20;99.90;;;;;;5137180;28;20134;-65
2021/07/18 08:13:00;;;;;;;3.22;2.30;;;22.20;99.90;;;;;;5136827;28;20047;-66
2021/07/18 08:15:27;;;;;;;;;;;22.40;99.90;;;;;;5143989;28;20482;-67
2021/07/18 08:17:53;;;;;;;4.47;2.45;;;22.30;99.90;;;;;;5144099;28;19941;-64
2021/07/18 08:20:22;;;;;;;3.30;2.72;;;22.40;99.90;;;;;;5139155;28;20095;-65
2021/07/18 08:22:50;;;;;;;9.18;2.90;;;22.40;99.90;;;;;;5134457;28;20047;-65
2021/07/18 08:25:18;;;;;;;4.15;2.40;;;22.50;99.90;;;;;;5142858;28;20054;-64
2021/07/18 08:27:44;;;;;;;;;;;22.60;99.90;;;;;;5136249;28;20084;-65
2021/07/18 08:30:19;;;;;;;4.25;2.92;;;22.70;99.90;;;;;;5142237;28;19934;-65
2021/07/18 08:32:45;;;;;;;7.83;3.40;;;22.70;99.90;;;;;;5135609;28;20063;-65
2021/07/18 08:35:12;;;;;;;6.70;3.00;;;22.60;99.90;;;;;;5142379;28;20099;-65
2021/07/18 08:37:39;;;;;;;7.00;2.92;;;22.60;99.90;;;;;;5129048;28;20242;-66
2021/07/18 08:40:07;;;;;;;10.93;2.50;;;22.70;99.90;;;;;;5136249;28;20043;-65
2021/07/18 08:42:34;;;;;;;4.63;2.63;;;22.80;99.90;;;;;;5129670;28;20292;-66
2021/07/18 08:45:01;;;;;;;5.15;2.17;;;22.80;99.90;;;;;;5131675;28;20451;-64
2021/07/18 08:47:27;;;;;;;3.38;2.20;;;22.80;99.90;;;;;;5143040;28;20039;-65
2021/07/18 08:49:54;;;;;;;6.00;3.10;;;22.90;99.90;;;;;;5136962;27;20447;-66
2021/07/18 08:52:21;;;;;;;5.45;2.88;;;22.90;99.90;;;;;;5135931;27;20052;-65
2021/07/18 08:54:49;;;;;;;4.68;3.13;;;22.90;99.90;;;;;;5136914;27;20110;-65
2021/07/18 08:57:21;;;;;;;8.90;2.88;;;22.90;99.90;;;;;;5137727;27;20070;-65
2021/07/18 08:59:47;;;;;;;6.72;1.90;;;22.80;99.90;;;;;;5136276;27;20039;-65
2021/07/18 09:02:15;;;;;;;6.53;2.22;;;22.90;99.90;;;;;;5146217;27;20043;-65
2021/07/18 09:04:41;;;;;;;7.65;2.88;;;23.00;99.90;;;;;;5132444;27;20044;-65
2021/07/18 09:07:09;;;;;;;3.63;2.05;;;22.90;99.90;;;;;;5140122;27;20069;-67
2021/07/18 09:09:35;;;;;;;7.47;2.00;;;22.90;99.90;;;;;;5140274;27;20095;-65
2021/07/18 09:12:07;;;;;;;4.20;2.00;;;23.00;99.90;;;;;;5146221;27;20039;-65
2021/07/18 09:14:36;;;;;;;5.28;2.17;;;23.20;99.90;;;;;;5141225;27;20039;-65
2021/07/18 09:17:03;;;;;;;5.78;2.00;;;23.30;99.90;;;;;;5130859;27;20045;-65
2021/07/18 09:19:33;;;;;;;7.70;2.40;;;23.20;99.90;;;;;;5143207;27;20043;-67
2021/07/18 09:22:06;;;;;;;4.90;1.95;;;23.30;99.90;;;;;;5140780;27;20044;-65
2021/07/18 09:24:38;;;;;;;4.80;2.22;;;23.40;99.90;;;;;;5126800;28;20050;-65
2021/07/18 09:27:14;;;;;;;3.17;2.10;;;23.50;99.90;;;;;;5140190;27;20036;-65
2021/07/18 09:29:49;;;;;;;3.35;1.50;;;23.50;99.90;;;;;;5133040;27;20055;-65
2021/07/18 09:32:18;;;;;;;4.05;1.50;;;23.60;99.90;;;;;;5130016;27;20503;-65
2021/07/18 09:34:50;;;;;;;3.80;1.73;;;23.40;99.90;;;;;;5141244;27;20100;-64
2021/07/18 09:37:24;;;;;;;3.78;1.67;;;23.40;99.90;;;;;;5145737;27;20043;-64
2021/07/18 09:40:10;;;;;;;5.40;1.98;;;23.50;99.90;;;;;;5142107;27;20095;-65
2021/07/18 09:42:45;;;;;;;2.78;1.58;;;23.80;99.90;;;;;;5144252;27;20050;-65
2021/07/18 09:45:22;;;;;;;4.25;1.55;;;23.70;99.90;;;;;;5137869;27;20571;-64
2021/07/18 09:47:55;;;;;;;4.60;1.73;;;23.80;99.90;;;;;;5136461;27;20043;-65
2021/07/18 09:50:24;;;;;;;3.90;1.70;;;23.80;99.90;;;;;;5138356;27;20054;-65
2021/07/18 09:52:50;;;;;;;7.20;2.38;;;23.90;99.90;;;;;;5127897;27;20050;-65
2021/07/18 09:55:23;;;;;;;3.05;1.63;;;23.80;99.90;;;;;;5140609;27;20035;-66
2021/07/18 09:57:52;;;;;;;4.82;2.08;;;23.60;99.90;;;;;;5134315;27;20043;-65
2021/07/18 10:00:22;;;;;;;5.80;1.75;;;23.80;99.90;;;;;;5126482;27;20049;-65
2021/07/18 10:02:51;;;;;;;5.88;1.90;;;24.00;99.90;;;;;;5133825;27;20047;-65
2021/07/18 10:05:27;;;;;;;3.03;1.67;;;24.00;99.90;;;;;;5126517;27;20123;-65
2021/07/18 10:08:04;;;;;;;4.75;2.17;;;24.00;99.90;;;;;;5126891;27;20114;-65
2021/07/18 10:10:30;;;;;;;5.25;2.05;;;24.00;99.90;;;;;;5126331;27;20058;-65
2021/07/18 10:12:56;;;;;;;5.15;2.28;;;24.00;99.90;;;;;;5126339;27;20434;-65
2021/07/18 10:15:22;;;;;;;4.85;1.95;;;24.00;99.90;;;;;;5143795;27;20050;-65
2021/07/18 10:17:49;;;;;;;5.05;2.08;;;24.00;99.90;;;;;;5142701;27;20040;-65
2021/07/18 10:20:15;;;;;;;8.57;2.63;;;24.10;99.90;;;;;;5139951;27;20047;-65
2021/07/18 10:22:42;;;;;;;3.72;2.05;;;24.00;99.90;;;;;;5126235;27;20069;-66
2021/07/18 10:25:11;;;;;;;4.57;2.15;;;23.90;99.90;;;;;;5140088;27;20487;-65
2021/07/18 10:27:38;;;;;;;3.47;2.05;;;23.90;99.90;;;;;;5145456;27;20039;-65
2021/07/18 10:30:04;;;;;;;5.53;2.25;;;23.90;99.90;;;;;;5138951;27;20047;-65
2021/07/18 10:32:30;;;;;;;7.10;2.53;;;23.90;99.90;;;;;;5145492;27;20045;-65
2021/07/18 10:34:56;;;;;;;4.60;2.25;;;24.00;99.90;;;;;;5138452;27;20067;-65
2021/07/18 10:37:22;;;;;;;3.20;2.10;;;23.90;99.90;;;;;;5145460;27;20043;-65
2021/07/18 10:39:54;;;;;;;7.18;2.30;;;24.20;99.90;;;;;;5137394;27;20051;-65
2021/07/18 10:42:34;;;;;;;6.80;2.10;;;24.10;99.90;;;;;;5130203;27;20418;-65
2021/07/18 10:45:22;;;;;;;4.38;2.38;;;24.20;99.90;;;;;;5136880;27;20051;-65
2021/07/18 10:47:58;;;;;;;6.82;2.60;;;24.20;99.90;;;;;;5139574;27;20122;-66
2021/07/18 10:50:42;;;;;;;4.70;2.00;;;24.30;99.90;;;;;;5134157;27;20038;-65
2021/07/18 10:53:26;;;;;;;7.68;2.53;;;24.20;99.90;;;;;;5141482;27;20039;-67
2021/07/18 10:55:53;;;;;;;5.18;2.10;;;24.10;99.90;;;;;;5133651;27;20039;-66
2021/07/18 10:58:40;;;;;;;6.47;1.90;;;24.20;99.90;;;;;;5139050;27;20067;-66
2021/07/18 11:01:21;;;;;;;3.42;2.05;;;24.40;99.90;;;;;;5133276;27;20040;-65
2021/07/18 11:03:48;;;;;;;6.45;2.85;;;24.50;99.90;;;;;;5124458;27;20043;-65
2021/07/18 11:06:25;;;;;;;4.35;2.20;;;24.40;99.90;;;;;;5133201;27;20070;-66
2021/07/18 11:09:19;;;;;;;3.67;2.05;;;24.50;99.90;;;;;;5132042;27;20066;-66
2021/07/18 11:11:49;;;;;;;8.02;2.10;;;24.40;99.90;;;;;;5131403;27;20073;-65
2021/07/18 11:14:26;;;;;;;5.18;1.75;;;24.40;99.90;;;;;;5121345;28;20070;-66
2021/07/18 11:16:55;;;;;;;3.10;1.80;;;24.50;99.90;;;;;;5135058;27;20095;-65
2021/07/18 11:19:38;;;;;;;4.88;1.95;;;24.20;99.90;;;;;;5135981;27;20063;-65
2021/07/18 11:22:12;;;;;;;10.40;1.90;;;24.20;99.90;;;;;;5128717;27;20039;-64
2021/07/18 11:24:53;;;;;;;5.38;2.13;;;24.20;99.90;;;;;;5134791;27;20066;-65
2021/07/18 11:27:30;;;;;;;8.15;2.03;;;24.20;99.90;;;;;;5137543;27;20043;-65
2021/07/18 11:29:58;;;;;;;5.43;2.37;;;24.40;99.90;;;;;;5132296;27;20054;-65
2021/07/18 11:32:33;;;;;;;4.00;1.80;;;24.60;99.90;;;;;;5136569;27;20086;-65
2021/07/18 11:35:00;;;;;;;4.55;1.80;;;24.70;99.90;;;;;;5132994;27;20047;-65
2021/07/18 11:37:27;;;;;;;;;;;24.30;99.90;;;;;;5137780;27;20039;-65
2021/07/18 11:40:01;;;;;;;4.13;1.85;;;24.40;99.90;;;;;;5139157;27;19920;-65
2021/07/18 11:42:27;;;;;;;5.25;1.40;;;24.50;99.90;;;;;;5136890;28;20046;-65
2021/07/18 11:44:53;;;;;;;3.42;1.58;;;25.00;99.90;;;;;;5134858;27;20047;-65
2021/07/18 11:47:20;;;;;;;6.95;1.70;;;24.90;99.90;;;;;;5126523;28;20036;-65
2021/07/18 11:49:48;;;;;;;3.13;1.80;;;25.50;99.90;;;;;;5137692;28;20513;-65
2021/07/18 11:52:16;;;;;;;4.72;1.70;;;25.50;99.90;;;;;;5137071;28;20032;-65
2021/07/18 11:54:43;;;;;;;3.17;1.90;;;25.50;99.90;;;;;;5137031;28;20043;-65
2021/07/18 11:57:17;;;;;;;2.67;1.50;;;25.70;99.90;;;;;;5138267;28;20511;-65
2021/07/18 11:59:45;;;;;;;4.68;1.80;;;25.60;99.90;;;;;;5136125;28;20066;-65
2021/07/18 12:02:12;;;;;;;7.72;2.13;;;26.10;99.90;;;;;;5138110;28;20039;-65
2021/07/18 12:04:40;;;;;;;9.10;2.20;;;26.20;99.90;;;;;;5133603;28;20063;-66
2021/07/18 12:07:11;;;;;;;4.50;1.55;;;26.00;99.90;;;;;;5126640;28;20042;-65
2021/07/18 12:09:41;;;;;;;4.25;2.20;;;26.00;99.90;;;;;;5133293;28;20048;-65
2021/07/18 12:12:13;;;;;;;4.18;1.85;;;26.00;99.90;;;;;;5126353;28;20114;-65
2021/07/18 12:14:41;;;;;;;7.30;1.80;;;25.50;99.90;;;;;;5124324;28;20051;-66
2021/07/18 12:17:09;;;;;;;5.55;1.55;;;25.70;99.90;;;;;;5139152;28;20042;-66
2021/07/18 12:19:35;;;;;;;6.53;1.95;;;25.70;99.90;;;;;;5132253;28;20043;-65
2021/07/18 12:22:11;;;;;;;7.90;2.03;;;25.90;99.90;;;;;;5125088;28;20050;-65
2021/07/18 12:24:48;;;;;;;10.02;1.90;;;25.70;99.90;;;;;;5134230;27;20047;-65
2021/07/18 12:27:13;;;;;;;8.80;2.37;;;26.00;99.90;;;;;;5144786;27;20051;-65
2021/07/18 12:29:43;;;;;;;7.87;2.30;;;26.20;99.90;;;;;;5129929;27;20054;-65
2021/07/18 12:32:10;;;;;;;7.43;2.20;;;26.00;99.90;;;;;;5145709;27;20047;-65
2021/07/18 12:34:37;;;;;;;;;;;26.20;99.90;;;;;;5136469;27;20078;-65
2021/07/18 12:37:09;;;;;;;4.57;2.20;;;26.50;99.90;;;;;;5142971;27;20457;-65
2021/07/18 12:39:42;;;;;;;6.38;1.90;;;26.60;99.90;;;;;;5127687;27;20070;-65
2021/07/18 12:42:26;;;;;;;6.97;2.50;;;26.90;99.90;;;;;;5142202;27;20046;-65